createdAt,value
2023-03-21T00:01:45.126Z,57.32
2023-03-21T00:04:12.006Z,57.30
2023-03-21T00:06:38.643Z,57.19
2023-03-21T00:09:05.233Z,57.33
2023-03-21T00:11:31.830Z,57.26
2023-03-21T00:14:02.343Z,57.72
2023-03-21T00:16:33.621Z,57.74
2023-03-21T00:19:06.827Z,58.01
2023-03-21T00:21:59.221Z,58.21
2023-03-21T00:24:24.767Z,58.23
2023-03-21T00:26:51.595Z,58.13
2023-03-21T00:29:18.175Z,57.63
2023-03-21T00:31:44.795Z,57.57
2023-03-21T00:36:43.269Z,57.39
2023-03-21T00:39:09.970Z,57.42
2023-03-21T00:41:42.865Z,57.61
2023-03-21T00:44:13.722Z,57.66
2023-03-21T00:46:47.308Z,57.89
2023-03-21T00:49:20.627Z,58.10
2023-03-21T00:51:51.103Z,58.56
2023-03-21T00:54:18.048Z,58.79
2023-03-21T00:56:44.609Z,58.30
2023-03-21T00:59:11.129Z,58.53
2023-03-21T01:01:37.683Z,58.26
2023-03-21T01:04:05.235Z,58.04
2023-03-21T01:06:39.368Z,57.82
2023-03-21T01:09:08.138Z,58.36
2023-03-21T01:11:35.374Z,58.05
2023-03-21T01:14:18.537Z,57.95
2023-03-21T01:16:48.574Z,58.01
2023-03-21T01:19:50.272Z,57.75
2023-03-21T01:22:06.369Z,57.97
2023-03-21T01:24:35.579Z,57.52
2023-03-21T01:27:04.234Z,57.55
2023-03-21T01:29:30.662Z,57.77
2023-03-21T01:31:57.121Z,57.94
2023-03-21T01:34:23.647Z,58.67
2023-03-21T01:36:50.139Z,58.48
2023-03-21T01:39:16.681Z,58.44
2023-03-21T01:41:44.718Z,58.21
2023-03-21T01:44:19.381Z,58.13
2023-03-21T01:47:07.312Z,58.20
2023-03-21T01:49:45.773Z,58.41
2023-03-21T01:52:29.864Z,58.38
2023-03-21T01:55:04.981Z,58.18
2023-03-21T01:57:47.256Z,58.38
2023-03-21T02:00:26.612Z,58.36
2023-03-21T02:03:06.153Z,58.64
2023-03-21T02:05:59.076Z,58.79
2023-03-21T02:08:38.379Z,58.32
2023-03-21T02:11:07.638Z,58.14
2023-03-21T02:13:35.534Z,58.13
2023-03-21T02:16:26.215Z,58.22
2023-03-21T02:19:39.328Z,58.51
2023-03-21T02:22:43.126Z,57.93
2023-03-21T02:25:34.348Z,59.26
2023-03-21T02:28:21.043Z,59.69
2023-03-21T02:31:41.966Z,59.50
2023-03-21T02:34:50.351Z,59.93
2023-03-21T02:37:38.299Z,59.16
2023-03-21T02:40:36.791Z,58.79
2023-03-21T02:43:41.483Z,58.77
2023-03-21T02:46:43.897Z,58.94
2023-03-21T02:49:34.507Z,59.12
2023-03-21T02:52:15.498Z,58.80
2023-03-21T02:54:49.567Z,58.77
2023-03-21T02:57:22.016Z,58.96
2023-03-21T02:59:56.839Z,58.69
2023-03-21T03:02:30.794Z,58.58
2023-03-21T03:04:58.793Z,58.20
2023-03-21T03:08:08.792Z,58.29
2023-03-21T03:11:18.061Z,58.38
2023-03-21T03:14:38.516Z,58.34
2023-03-21T03:17:19.625Z,59.83
2023-03-21T03:20:47.062Z,59.62
2023-03-21T03:23:28.010Z,59.60
2023-03-21T03:26:28.130Z,59.72
2023-03-21T03:29:02.431Z,59.51
2023-03-21T03:31:39.570Z,59.20
2023-03-21T03:34:11.986Z,58.74
2023-03-21T03:36:47.496Z,58.67
2023-03-21T03:39:16.348Z,58.58
2023-03-21T03:42:12.182Z,58.21
2023-03-21T03:44:41.920Z,58.65
2023-03-21T03:47:31.946Z,59.07
2023-03-21T03:50:24.463Z,59.77
2023-03-21T03:53:01.238Z,59.79
2023-03-21T03:55:34.410Z,60.14
2023-03-21T03:58:03.269Z,59.68
2023-03-21T04:00:34.902Z,59.44
2023-03-21T04:03:01.575Z,59.01
2023-03-21T04:05:28.148Z,58.95
2023-03-21T04:07:54.657Z,59.17
2023-03-21T04:10:22.590Z,59.37
2023-03-21T04:12:49.721Z,59.49
2023-03-21T04:15:17.114Z,59.46
2023-03-21T04:17:45.358Z,59.27
2023-03-21T04:20:18.703Z,59.23
2023-03-21T04:22:51.141Z,59.43
2023-03-21T04:25:30.799Z,59.69
2023-03-21T04:27:59.165Z,59.23
2023-03-21T04:30:25.816Z,59.61
2023-03-21T04:32:56.937Z,59.74
2023-03-21T04:35:24.799Z,59.98
2023-03-21T04:37:51.463Z,60.19
2023-03-21T04:40:18.728Z,60.06
2023-03-21T04:42:47.506Z,59.93
2023-03-21T04:45:16.220Z,59.90
2023-03-21T04:47:43.279Z,59.57
2023-03-21T04:50:11.531Z,59.68
2023-03-21T04:52:38.427Z,59.85
2023-03-21T04:55:05.729Z,60.43
2023-03-21T04:57:32.183Z,60.36
2023-03-21T04:59:58.650Z,59.79
2023-03-21T05:02:25.612Z,59.51
2023-03-21T05:04:52.331Z,59.80
2023-03-21T05:07:18.826Z,60.20
2023-03-21T05:09:45.564Z,60.56
2023-03-21T05:12:12.111Z,60.40
2023-03-21T05:14:38.576Z,60.66
2023-03-21T05:17:05.351Z,60.04
2023-03-21T05:19:35.694Z,60.56
2023-03-21T05:22:06.149Z,60.70
2023-03-21T05:24:33.084Z,61.37
2023-03-21T05:27:04.039Z,61.75
2023-03-21T05:29:32.686Z,61.24
2023-03-21T05:32:01.022Z,60.95
2023-03-21T05:34:28.814Z,60.66
2023-03-21T05:36:55.559Z,61.56
2023-03-21T05:39:22.528Z,61.77
2023-03-21T05:41:49.311Z,61.06
2023-03-21T05:44:16.052Z,61.84
2023-03-21T05:46:43.281Z,61.46
2023-03-21T05:49:11.864Z,62.04
2023-03-21T05:51:38.470Z,62.01
2023-03-21T05:54:06.269Z,62.05
2023-03-21T05:56:32.935Z,62.04
2023-03-21T05:58:59.399Z,62.35
2023-03-21T06:01:25.924Z,62.72
2023-03-21T06:03:52.425Z,63.03
2023-03-21T06:06:18.914Z,62.87
2023-03-21T06:08:45.525Z,62.91
2023-03-21T06:11:36.290Z,62.11
2023-03-21T06:14:02.949Z,61.41
2023-03-21T06:16:29.836Z,61.19
2023-03-21T06:18:56.592Z,60.92
2023-03-21T06:21:24.200Z,61.01
2023-03-21T06:23:52.420Z,61.30
2023-03-21T06:26:23.159Z,61.89
2023-03-21T06:28:50.752Z,61.80
2023-03-21T06:31:17.536Z,61.46
2023-03-21T06:33:44.167Z,61.11
2023-03-21T06:36:11.263Z,61.19
2023-03-21T06:38:38.129Z,61.08
2023-03-21T06:41:07.476Z,60.76
2023-03-21T06:43:34.799Z,60.46
2023-03-21T06:46:01.675Z,59.90
2023-03-21T06:48:28.659Z,59.89
2023-03-21T06:50:56.272Z,60.16
2023-03-21T06:53:27.282Z,60.49
2023-03-21T06:55:54.604Z,60.20
2023-03-21T06:58:22.806Z,60.26
2023-03-21T07:00:49.699Z,60.30
2023-03-21T07:03:16.877Z,60.16
2023-03-21T07:05:43.470Z,59.99
2023-03-21T07:08:12.178Z,60.06
2023-03-21T07:10:40.836Z,59.50
2023-03-21T07:13:07.719Z,59.54
2023-03-21T07:15:38.052Z,59.30
2023-03-21T07:18:05.823Z,59.11
2023-03-21T07:20:32.764Z,59.52
2023-03-21T07:22:59.600Z,59.69
2023-03-21T07:25:27.011Z,59.93
2023-03-21T07:27:53.769Z,59.70
2023-03-21T07:30:20.469Z,59.29
2023-03-21T07:32:47.590Z,59.28
2023-03-21T07:35:16.926Z,58.76
2023-03-21T07:37:44.225Z,59.23
2023-03-21T07:40:13.291Z,59.03
2023-03-21T07:42:41.493Z,58.86
2023-03-21T07:45:10.374Z,58.53
2023-03-21T07:47:36.834Z,58.35
2023-03-21T07:50:04.578Z,58.88
2023-03-21T07:52:33.211Z,58.47
2023-03-21T07:54:59.752Z,58.86
2023-03-21T07:57:26.415Z,58.90
2023-03-21T07:59:53.050Z,59.42
2023-03-21T08:02:19.606Z,59.36
2023-03-21T08:04:46.658Z,59.12
2023-03-21T08:07:13.497Z,59.37
2023-03-21T08:09:40.398Z,59.22
2023-03-21T08:12:08.554Z,59.10
2023-03-21T08:14:36.831Z,59.64
2023-03-21T08:17:05.178Z,59.42
2023-03-21T08:19:32.270Z,59.19
2023-03-21T08:22:02.276Z,59.30
2023-03-21T08:24:29.996Z,58.87
2023-03-21T08:26:57.156Z,58.35
2023-03-21T08:29:25.000Z,58.87
2023-03-21T08:31:51.617Z,58.68
2023-03-21T08:34:19.402Z,58.57
2023-03-21T08:36:47.028Z,58.33
2023-03-21T08:39:13.648Z,58.45
2023-03-21T08:41:40.272Z,58.19
2023-03-21T08:44:06.961Z,58.91
2023-03-21T08:46:33.907Z,58.23
2023-03-21T08:49:00.538Z,57.91
2023-03-21T08:51:27.180Z,58.06
2023-03-21T08:53:53.710Z,58.55
2023-03-21T08:56:20.236Z,58.27
2023-03-21T08:58:47.285Z,58.23
2023-03-21T09:01:15.753Z,58.25
2023-03-21T09:03:43.219Z,58.79
2023-03-21T09:06:14.106Z,58.37
2023-03-21T09:08:41.923Z,58.32
2023-03-21T09:11:10.404Z,58.48
2023-03-21T09:13:37.022Z,58.45
2023-03-21T09:16:05.135Z,58.69
2023-03-21T09:18:57.949Z,59.32
2023-03-21T09:21:27.331Z,59.40
2023-03-21T09:23:56.446Z,59.58
2023-03-21T09:26:24.973Z,59.33
2023-03-21T09:28:53.010Z,59.65
2023-03-21T09:31:23.304Z,59.65
2023-03-21T09:33:51.522Z,59.67
2023-03-21T09:36:20.835Z,59.38
2023-03-21T09:38:49.252Z,59.25
2023-03-21T09:41:45.705Z,59.41
2023-03-21T09:44:32.097Z,60.03
2023-03-21T09:47:29.391Z,60.42
2023-03-21T09:50:13.584Z,60.72
2023-03-21T09:52:58.335Z,60.82
2023-03-21T09:55:34.672Z,60.50
2023-03-21T09:58:21.080Z,60.63
2023-03-21T10:00:56.487Z,60.83
2023-03-21T10:03:35.034Z,61.22
2023-03-21T10:06:11.680Z,61.13
2023-03-21T10:08:41.862Z,63.15
2023-03-21T10:11:27.884Z,62.26
2023-03-21T10:14:03.280Z,61.82
2023-03-21T10:16:41.423Z,62.01
2023-03-21T10:19:14.868Z,61.80
2023-03-21T10:22:04.389Z,61.84
2023-03-21T10:24:34.538Z,61.90
2023-03-21T10:27:04.231Z,62.07
2023-03-21T10:29:43.505Z,61.50
2023-03-21T10:32:15.230Z,61.38
2023-03-21T10:34:50.579Z,60.81
2023-03-21T10:37:17.577Z,61.02
2023-03-21T10:39:51.475Z,60.86
2023-03-21T10:42:26.854Z,60.97
2023-03-21T10:44:57.471Z,60.31
2023-03-21T10:47:34.652Z,60.79
2023-03-21T10:50:08.895Z,60.94
2023-03-21T10:52:47.475Z,61.00
2023-03-21T10:55:31.995Z,60.49
2023-03-21T10:58:18.784Z,60.71
2023-03-21T11:00:48.043Z,60.63
2023-03-21T11:03:31.149Z,60.64
2023-03-21T11:06:14.069Z,60.83
2023-03-21T11:08:56.268Z,61.50
2023-03-21T11:11:40.431Z,60.89
2023-03-21T11:14:32.864Z,61.31
2023-03-21T11:16:59.588Z,60.76
2023-03-21T11:19:32.301Z,60.47
2023-03-21T11:22:06.688Z,60.92
2023-03-21T11:24:35.915Z,60.42
2023-03-21T11:27:08.099Z,60.02
2023-03-21T11:29:40.417Z,60.46
2023-03-21T11:32:37.961Z,60.55
2023-03-21T11:35:28.028Z,61.89
2023-03-21T11:37:56.726Z,60.44
2023-03-21T11:40:29.250Z,60.07
2023-03-21T11:43:31.882Z,60.19
2023-03-21T11:46:09.346Z,60.50
2023-03-21T11:48:42.549Z,60.28
2023-03-21T11:51:46.534Z,60.46
2023-03-21T11:54:25.894Z,60.48
2023-03-21T11:57:04.332Z,60.65
2023-03-21T12:00:03.109Z,60.77
2023-03-21T12:02:55.650Z,61.14
2023-03-21T12:05:31.741Z,60.81
2023-03-21T12:08:20.578Z,61.11
2023-03-21T12:10:57.488Z,60.78
2023-03-21T12:14:04.476Z,60.60
2023-03-21T12:17:01.315Z,60.76
2023-03-21T12:19:46.509Z,60.97
2023-03-21T12:22:27.780Z,60.86
2023-03-21T12:24:57.060Z,60.79
2023-03-21T12:28:15.295Z,60.59
2023-03-21T12:31:10.858Z,60.48
2023-03-21T12:33:52.722Z,60.32
2023-03-21T12:36:59.489Z,59.93
2023-03-21T12:39:36.401Z,59.58
2023-03-21T12:42:43.502Z,59.58
2023-03-21T12:45:19.560Z,59.52
2023-03-21T12:47:56.066Z,59.27
2023-03-21T12:50:32.705Z,59.12
2023-03-21T12:53:09.539Z,59.80
2023-03-21T12:55:36.595Z,59.66
2023-03-21T12:58:11.672Z,59.48
2023-03-21T13:00:45.547Z,59.35
2023-03-21T13:03:30.558Z,59.39
2023-03-21T13:06:09.579Z,59.33
2023-03-21T13:08:44.267Z,59.72
2023-03-21T13:11:19.455Z,59.94
2023-03-21T13:13:53.646Z,59.92
2023-03-21T13:16:27.600Z,59.91
2023-03-21T13:19:22.688Z,59.88
2023-03-21T13:22:05.621Z,60.03
2023-03-21T13:24:31.977Z,60.25
2023-03-21T13:27:24.556Z,59.67
2023-03-21T13:29:58.684Z,59.96
2023-03-21T13:32:43.989Z,60.10
2023-03-21T13:35:27.633Z,60.51
2023-03-21T13:38:03.632Z,60.32
2023-03-21T13:40:51.744Z,60.66
2023-03-21T13:44:08.066Z,61.10
2023-03-21T13:46:54.850Z,60.71
2023-03-21T13:49:34.631Z,60.75
2023-03-21T13:52:26.085Z,60.89
2023-03-21T13:54:56.667Z,61.02
2023-03-21T13:57:31.967Z,60.67
2023-03-21T14:00:18.849Z,60.84
2023-03-21T14:03:14.065Z,61.55
2023-03-21T14:05:41.723Z,61.52
2023-03-21T14:08:27.890Z,61.31
2023-03-21T14:11:09.857Z,60.84
2023-03-21T14:13:48.429Z,60.91
2023-03-21T14:16:20.388Z,60.75
2023-03-21T14:19:02.139Z,59.80
2023-03-21T14:21:33.981Z,60.72
2023-03-21T14:24:07.965Z,60.12
2023-03-21T14:26:43.734Z,60.43
2023-03-21T14:29:26.122Z,61.17
2023-03-21T14:31:56.313Z,60.98
2023-03-21T14:34:27.112Z,60.76
2023-03-21T14:37:00.946Z,61.20
2023-03-21T14:39:32.306Z,61.12
2023-03-21T14:42:08.280Z,61.29
2023-03-21T14:44:54.995Z,61.49
2023-03-21T14:47:29.266Z,61.20
2023-03-21T14:49:58.057Z,60.50
2023-03-21T14:52:34.039Z,60.50
2023-03-21T14:55:11.686Z,60.91
2023-03-21T14:57:38.239Z,60.80
2023-03-21T15:00:12.942Z,60.57
2023-03-21T15:02:42.779Z,61.06
2023-03-21T15:05:26.141Z,60.60
2023-03-21T15:07:58.157Z,61.00
2023-03-21T15:10:29.793Z,60.76
2023-03-21T15:13:12.849Z,60.50
2023-03-21T15:15:41.238Z,60.21
2023-03-21T15:18:11.024Z,59.54
2023-03-21T15:20:39.500Z,59.68
2023-03-21T15:23:35.795Z,60.08
2023-03-21T15:26:05.188Z,59.48
2023-03-21T15:28:34.921Z,59.26
2023-03-21T15:31:02.470Z,59.69
2023-03-21T15:33:28.997Z,59.75
2023-03-21T15:35:58.409Z,59.48
2023-03-21T15:38:41.137Z,59.43
2023-03-21T15:41:19.699Z,58.98
2023-03-21T15:44:07.815Z,59.58
2023-03-21T15:46:51.495Z,59.83
2023-03-21T15:49:28.168Z,59.79
2023-03-21T15:51:57.776Z,59.64
2023-03-21T15:54:32.369Z,59.13
2023-03-21T15:57:04.823Z,59.19
2023-03-21T15:59:40.564Z,59.37
2023-03-21T16:02:19.065Z,59.35
2023-03-21T16:05:21.731Z,59.38
2023-03-21T16:07:48.700Z,59.43
2023-03-21T16:10:38.875Z,59.18
2023-03-21T16:13:06.522Z,59.49
2023-03-21T16:15:33.282Z,59.16
2023-03-21T16:18:04.085Z,59.00
2023-03-21T16:20:44.498Z,58.78
2023-03-21T16:23:13.586Z,58.84
2023-03-21T16:25:43.687Z,58.99
2023-03-21T16:28:16.751Z,58.71
2023-03-21T16:30:44.296Z,58.70
2023-03-21T16:33:12.863Z,58.89
2023-03-21T16:35:40.656Z,58.99
2023-03-21T16:38:07.457Z,58.62
2023-03-21T16:40:39.365Z,58.60
2023-03-21T16:43:06.500Z,58.72
2023-03-21T16:45:33.257Z,58.84
2023-03-21T16:48:00.613Z,58.55
2023-03-21T16:50:42.182Z,58.69
2023-03-21T16:53:09.337Z,58.70
2023-03-21T16:55:37.556Z,58.21
2023-03-21T16:58:05.273Z,58.38
2023-03-21T17:00:31.947Z,58.48
2023-03-21T17:03:13.634Z,58.43
2023-03-21T17:05:40.404Z,58.77
2023-03-21T17:08:07.065Z,58.98
2023-03-21T17:10:33.676Z,59.09
2023-03-21T17:13:00.211Z,59.75
2023-03-21T17:15:26.976Z,59.59
2023-03-21T17:17:55.499Z,59.41
2023-03-21T17:20:31.575Z,59.54
2023-03-21T17:22:59.023Z,60.32
2023-03-21T17:25:26.155Z,60.06
2023-03-21T17:27:54.010Z,60.50
2023-03-21T17:30:30.895Z,60.48
2023-03-21T17:32:58.655Z,60.52
2023-03-21T17:35:26.209Z,60.63
2023-03-21T17:37:54.021Z,60.37
2023-03-21T17:40:26.731Z,60.65
2023-03-21T17:42:53.813Z,60.61
2023-03-21T17:45:20.967Z,60.50
2023-03-21T17:47:47.562Z,60.51
2023-03-21T17:50:21.985Z,60.53
2023-03-21T17:52:50.848Z,60.60
2023-03-21T17:55:20.937Z,60.59
2023-03-21T17:57:48.905Z,60.56
2023-03-21T18:00:26.307Z,60.68
2023-03-21T18:02:53.149Z,60.91
2023-03-21T18:05:21.604Z,60.89
2023-03-21T18:08:10.761Z,60.79
2023-03-21T18:10:39.272Z,61.15
2023-03-21T18:13:06.429Z,61.27
2023-03-21T18:15:33.011Z,61.35
2023-03-21T18:17:59.806Z,61.58
2023-03-21T18:20:49.934Z,61.53
2023-03-21T18:23:14.817Z,62.05
2023-03-21T18:25:41.701Z,62.35
2023-03-21T18:28:12.050Z,61.94
2023-03-21T18:31:04.842Z,62.16
2023-03-21T18:33:27.258Z,62.34
2023-03-21T18:35:58.666Z,62.61
2023-03-21T18:38:26.366Z,62.67
2023-03-21T18:40:52.856Z,62.55
2023-03-21T18:46:07.597Z,62.30
2023-03-21T18:48:35.770Z,62.02
2023-03-21T18:51:03.740Z,62.25
2023-03-21T18:53:30.407Z,62.81
2023-03-21T18:55:57.556Z,62.87
2023-03-21T18:58:25.512Z,62.63
2023-03-21T19:00:53.459Z,62.46
2023-03-21T19:03:34.351Z,62.59
2023-03-21T19:06:04.701Z,62.60
2023-03-21T19:08:31.825Z,63.08
2023-03-21T19:11:00.195Z,63.38
2023-03-21T19:13:30.424Z,63.61
2023-03-21T19:15:57.214Z,64.08
2023-03-21T19:18:41.644Z,64.20
2023-03-21T19:21:10.808Z,63.98
2023-03-21T19:24:07.860Z,63.83
2023-03-21T19:26:25.841Z,63.71
2023-03-21T19:28:53.682Z,63.58
2023-03-21T19:31:21.815Z,62.95
2023-03-21T19:33:48.669Z,62.73
2023-03-21T19:36:21.779Z,62.80
2023-03-21T19:38:49.092Z,63.07
2023-03-21T19:41:16.343Z,63.21
2023-03-21T19:43:53.147Z,63.32
2023-03-21T19:46:24.375Z,63.58
2023-03-21T19:48:56.230Z,63.43
2023-03-21T19:51:29.418Z,63.24
2023-03-21T19:54:03.232Z,63.57
2023-03-21T19:56:31.524Z,63.66
2023-03-21T19:58:59.058Z,63.49
2023-03-21T20:01:27.579Z,63.76
2023-03-21T20:03:54.524Z,63.98
2023-03-21T20:06:24.305Z,64.05
2023-03-21T20:11:39.942Z,64.41
2023-03-21T20:14:06.505Z,64.05
2023-03-21T20:16:35.873Z,63.74
2023-03-21T20:19:09.896Z,63.99
2023-03-21T20:21:47.716Z,64.44
2023-03-21T20:24:16.952Z,64.23
2023-03-21T20:26:45.766Z,63.82
2023-03-21T20:32:00.616Z,63.98
2023-03-21T20:34:28.466Z,63.92
2023-03-21T20:36:55.516Z,63.64
2023-03-21T20:39:22.370Z,63.66
2023-03-21T20:41:48.952Z,63.52
2023-03-21T20:47:05.453Z,63.65
2023-03-21T20:49:32.158Z,63.41
2023-03-21T20:54:45.617Z,64.26
2023-03-21T20:57:12.190Z,64.03
2023-03-21T20:59:39.240Z,64.26
2023-03-21T21:02:05.737Z,64.42
2023-03-21T21:04:49.840Z,64.82
2023-03-21T21:07:22.358Z,64.29
2023-03-21T21:09:50.133Z,64.55
2023-03-21T21:12:19.069Z,64.41
2023-03-21T21:14:45.861Z,64.81
2023-03-21T21:17:54.565Z,64.80
2023-03-21T21:20:01.574Z,65.09
2023-03-21T21:22:28.913Z,65.44
2023-03-21T21:24:55.454Z,65.27
2023-03-21T21:27:21.937Z,65.48
2023-03-21T21:29:50.156Z,65.69
2023-03-21T21:32:18.516Z,65.86
2023-03-21T21:34:45.601Z,65.78
2023-03-21T21:37:12.220Z,65.60
2023-03-21T21:39:40.092Z,65.52
2023-03-21T21:42:06.627Z,65.32
2023-03-21T21:44:33.327Z,65.17
2023-03-21T21:46:59.869Z,64.84
2023-03-21T21:49:27.831Z,64.70
2023-03-21T21:51:56.144Z,64.45
2023-03-21T21:54:22.664Z,64.28
2023-03-21T21:56:53.855Z,64.47
2023-03-21T21:59:21.934Z,64.36
2023-03-21T22:01:51.016Z,64.62
2023-03-21T22:04:18.104Z,64.74
2023-03-21T22:06:44.654Z,64.64
2023-03-21T22:09:11.222Z,64.66
2023-03-21T22:11:37.673Z,64.77
2023-03-21T22:14:04.150Z,64.63
2023-03-21T22:16:30.787Z,64.53
2023-03-21T22:18:57.270Z,64.61
2023-03-21T22:21:23.885Z,64.63
2023-03-21T22:23:50.509Z,64.76
2023-03-21T22:26:17.056Z,64.68
2023-03-21T22:28:43.729Z,64.83
2023-03-21T22:31:18.158Z,64.63
2023-03-21T22:33:45.384Z,64.83
2023-03-21T22:36:12.318Z,65.40
2023-03-21T22:38:38.987Z,65.34
2023-03-21T22:41:06.749Z,65.72
2023-03-21T22:43:35.110Z,65.48
2023-03-21T22:46:04.373Z,64.93
2023-03-21T22:48:31.409Z,65.24
2023-03-21T22:51:00.010Z,65.09
2023-03-21T22:53:26.802Z,64.95
2023-03-21T22:55:53.699Z,65.07
2023-03-21T22:58:20.992Z,64.67
2023-03-21T23:00:48.163Z,64.96
2023-03-21T23:03:16.716Z,64.69
2023-03-21T23:05:45.160Z,64.69
2023-03-21T23:08:12.783Z,64.73
2023-03-21T23:10:43.301Z,64.81
2023-03-21T23:13:10.066Z,65.31
2023-03-21T23:15:38.495Z,65.13
2023-03-21T23:18:06.335Z,65.19
2023-03-21T23:20:32.914Z,65.00
2023-03-21T23:22:59.477Z,65.37
2023-03-21T23:25:26.157Z,65.43
2023-03-21T23:27:52.708Z,65.00
2023-03-21T23:30:19.295Z,65.29
2023-03-21T23:32:45.880Z,65.21
2023-03-21T23:35:12.895Z,65.00
2023-03-21T23:37:42.305Z,64.83
2023-03-21T23:40:10.292Z,65.38
2023-03-21T23:42:36.913Z,64.76
2023-03-21T23:45:04.479Z,64.55
2023-03-21T23:47:31.005Z,64.71
2023-03-21T23:49:57.562Z,64.83
2023-03-21T23:52:24.175Z,64.56
2023-03-21T23:54:50.765Z,64.70
2023-03-21T23:57:17.900Z,65.06
2023-03-21T23:59:46.562Z,64.56
